createdAt,value
2018-12-09T00:00:24.088Z,100.00
2018-12-09T00:02:54.165Z,100.00
2018-12-09T00:05:22.454Z,100.00
2018-12-09T00:07:51.435Z,100.00
2018-12-09T00:10:20.482Z,100.00
2018-12-09T00:12:49.583Z,100.00
2018-12-09T00:15:18.538Z,100.00
2018-12-09T00:17:47.579Z,100.00
2018-12-09T00:20:16.632Z,100.00
2018-12-09T00:22:45.616Z,100.00
2018-12-09T00:25:14.965Z,98.30
2018-12-09T00:27:43.963Z,100.00
2018-12-09T00:30:12.989Z,100.00
2018-12-09T00:32:42.168Z,100.00
2018-12-09T00:35:11.150Z,100.00
2018-12-09T00:37:40.107Z,100.00
2018-12-09T00:40:09.193Z,100.00
2018-12-09T00:42:43.360Z,100.00
2018-12-09T00:45:07.354Z,100.00
2018-12-09T00:47:36.662Z,100.00
2018-12-09T00:50:05.744Z,100.00
2018-12-09T00:52:34.709Z,100.00
2018-12-09T00:55:04.072Z,100.00
2018-12-09T00:57:33.067Z,100.00
2018-12-09T01:00:02.071Z,100.00
2018-12-09T01:02:31.121Z,100.00
2018-12-09T01:05:00.207Z,99.77
2018-12-09T01:07:29.207Z,97.89
2018-12-09T01:09:58.305Z,100.00
2018-12-09T01:12:27.330Z,98.51
2018-12-09T01:14:56.323Z,96.42
2018-12-09T01:17:25.355Z,96.75
2018-12-09T01:19:54.395Z,90.46
2018-12-09T01:22:23.366Z,95.43
2018-12-09T01:24:52.352Z,96.30
2018-12-09T01:27:21.355Z,92.85
2018-12-09T01:29:50.449Z,89.61
2018-12-09T01:32:19.952Z,90.11
2018-12-09T01:34:48.847Z,90.76
2018-12-09T01:37:17.830Z,92.80
2018-12-09T01:39:46.869Z,92.68
2018-12-09T01:42:15.878Z,94.45
2018-12-09T01:44:44.858Z,99.21
2018-12-09T01:47:14.028Z,99.46
2018-12-09T01:49:43.089Z,97.58
2018-12-09T01:52:12.148Z,100.00
2018-12-09T01:54:41.168Z,100.00
2018-12-09T01:57:10.182Z,100.00
2018-12-09T01:59:39.314Z,100.00
2018-12-09T02:02:08.376Z,99.91
2018-12-09T02:04:37.418Z,94.79
2018-12-09T02:07:06.472Z,100.00
2018-12-09T02:09:35.459Z,98.31
2018-12-09T02:12:04.500Z,91.93
2018-12-09T02:14:33.518Z,90.49
2018-12-09T02:17:02.467Z,91.29
2018-12-09T02:19:31.608Z,84.74
2018-12-09T02:22:00.636Z,95.07
2018-12-09T02:24:29.675Z,98.17
2018-12-09T02:26:58.708Z,100.00
2018-12-09T02:29:27.769Z,96.41
2018-12-09T02:31:56.734Z,87.37
2018-12-09T02:34:26.368Z,90.38
2018-12-09T02:36:55.467Z,90.11
2018-12-09T02:39:24.510Z,91.13
2018-12-09T02:41:53.565Z,87.64
2018-12-09T02:44:22.750Z,98.10
2018-12-09T02:46:51.737Z,92.64
2018-12-09T02:49:20.789Z,91.42
2018-12-09T02:51:49.854Z,89.88
2018-12-09T02:54:18.799Z,99.06
2018-12-09T02:56:47.832Z,89.62
2018-12-09T02:59:16.785Z,92.76
2018-12-09T03:01:45.861Z,93.29
2018-12-09T03:04:14.892Z,90.59
2018-12-09T03:06:43.885Z,90.90
2018-12-09T03:09:12.896Z,97.54
2018-12-09T03:11:41.907Z,97.30
2018-12-09T03:14:10.895Z,98.03
2018-12-09T03:16:39.984Z,87.92
2018-12-09T03:19:08.919Z,83.93
2018-12-09T03:21:37.969Z,93.61
2018-12-09T03:24:07.032Z,97.26
2018-12-09T03:26:36.142Z,97.51
2018-12-09T03:29:05.204Z,100.00
2018-12-09T03:31:34.278Z,100.00
2018-12-09T03:34:03.326Z,99.92
2018-12-09T03:36:32.335Z,92.63
2018-12-09T03:39:01.347Z,90.03
2018-12-09T03:41:30.350Z,88.88
2018-12-09T03:43:59.334Z,85.53
2018-12-09T03:46:28.298Z,86.27
2018-12-09T03:48:57.295Z,91.05
2018-12-09T03:51:26.352Z,100.00
2018-12-09T03:53:55.400Z,100.00
2018-12-09T03:56:24.447Z,100.00
2018-12-09T03:58:53.510Z,97.43
2018-12-09T04:01:22.639Z,96.33
2018-12-09T04:03:51.724Z,95.31
2018-12-09T04:06:20.759Z,90.42
2018-12-09T04:08:49.721Z,94.80
2018-12-09T04:11:18.754Z,96.93
2018-12-09T04:13:47.815Z,97.40
2018-12-09T04:16:16.805Z,100.00
2018-12-09T04:18:45.894Z,100.00
2018-12-09T04:21:14.934Z,100.00
2018-12-09T04:23:43.988Z,100.00
2018-12-09T04:26:13.077Z,100.00
2018-12-09T04:28:42.096Z,100.00
2018-12-09T04:31:11.149Z,100.00
2018-12-09T04:33:40.152Z,100.00
2018-12-09T04:36:09.169Z,100.00
2018-12-09T04:38:38.157Z,100.00
2018-12-09T04:41:07.182Z,100.00
2018-12-09T04:43:36.166Z,100.00
2018-12-09T04:46:05.279Z,99.11
2018-12-09T04:48:34.276Z,98.69
2018-12-09T04:51:03.363Z,92.52
2018-12-09T04:53:32.385Z,90.58
2018-12-09T04:56:01.391Z,88.20
2018-12-09T04:58:30.446Z,84.42
2018-12-09T05:00:59.430Z,89.45
2018-12-09T05:03:28.479Z,98.03
2018-12-09T05:05:57.563Z,100.00
2018-12-09T05:08:26.641Z,100.00
2018-12-09T05:10:55.785Z,100.00
2018-12-09T05:13:24.813Z,100.00
2018-12-09T05:15:53.914Z,100.00
2018-12-09T05:18:22.972Z,100.00
2018-12-09T05:20:52.048Z,100.00
2018-12-09T05:23:21.089Z,100.00
2018-12-09T05:25:50.140Z,100.00
2018-12-09T05:28:19.234Z,94.84
2018-12-09T05:30:48.310Z,92.39
2018-12-09T05:33:17.345Z,90.52
2018-12-09T05:35:46.358Z,100.00
2018-12-09T05:38:15.350Z,100.00
2018-12-09T05:40:44.503Z,100.00
2018-12-09T05:43:13.577Z,100.00
2018-12-09T05:45:42.583Z,100.00
2018-12-09T05:48:11.696Z,100.00
2018-12-09T05:50:40.745Z,100.00
2018-12-09T05:53:09.916Z,89.16
2018-12-09T05:55:38.988Z,88.73
2018-12-09T05:58:08.015Z,86.29
2018-12-09T06:00:37.066Z,86.88
2018-12-09T06:03:06.086Z,86.02
2018-12-09T06:05:35.178Z,89.66
2018-12-09T06:08:04.258Z,91.17
2018-12-09T06:10:33.373Z,98.74
2018-12-09T06:13:02.386Z,100.00
2018-12-09T06:15:31.382Z,100.00
2018-12-09T06:18:00.406Z,100.00
2018-12-09T06:20:29.386Z,100.00
2018-12-09T06:22:58.500Z,100.00
2018-12-09T06:25:27.557Z,100.00
2018-12-09T06:27:56.551Z,100.00
2018-12-09T06:30:25.649Z,100.00
2018-12-09T06:32:54.922Z,97.07
2018-12-09T06:35:23.947Z,92.64
2018-12-09T06:37:53.021Z,92.20
2018-12-09T06:40:22.144Z,95.10
2018-12-09T06:42:51.226Z,90.37
2018-12-09T06:45:20.255Z,100.00
2018-12-09T06:47:49.274Z,100.00
2018-12-09T06:50:18.609Z,100.00
2018-12-09T06:52:47.607Z,100.00
2018-12-09T06:55:16.650Z,100.00
2018-12-09T06:57:45.762Z,100.00
2018-12-09T07:00:14.752Z,100.00
2018-12-09T07:02:43.805Z,100.00
2018-12-09T07:05:12.952Z,100.00
2018-12-09T07:07:41.975Z,100.00
2018-12-09T07:10:11.116Z,100.00
2018-12-09T07:12:40.440Z,100.00
2018-12-09T07:15:09.593Z,99.62
2018-12-09T07:17:38.669Z,100.00
2018-12-09T07:20:08.889Z,100.00
2018-12-09T07:22:37.962Z,100.00
2018-12-09T07:25:07.183Z,100.00
2018-12-09T07:27:36.430Z,100.00
2018-12-09T07:30:06.212Z,100.00
2018-12-09T07:32:35.247Z,100.00
2018-12-09T07:35:04.432Z,100.00
2018-12-09T07:37:33.548Z,100.00
2018-12-09T07:40:02.577Z,100.00
2018-12-09T07:42:31.646Z,100.00
2018-12-09T07:45:00.599Z,100.00
2018-12-09T07:47:29.719Z,100.00
2018-12-09T07:49:59.101Z,100.00
2018-12-09T07:52:28.184Z,100.00
2018-12-09T07:54:57.356Z,100.00
2018-12-09T07:57:27.068Z,100.00
2018-12-09T07:59:56.102Z,100.00
2018-12-09T08:02:25.174Z,100.00
2018-12-09T08:04:54.246Z,100.00
2018-12-09T08:07:23.259Z,100.00
2018-12-09T08:09:52.247Z,100.00
2018-12-09T08:12:21.319Z,100.00
2018-12-09T08:14:50.487Z,100.00
2018-12-09T08:17:19.438Z,100.00
2018-12-09T08:19:48.436Z,100.00
2018-12-09T08:22:17.456Z,100.00
2018-12-09T08:24:46.429Z,100.00
2018-12-09T08:27:15.441Z,100.00
2018-12-09T08:29:44.639Z,100.00
2018-12-09T08:32:13.758Z,100.00
2018-12-09T08:34:42.803Z,100.00
2018-12-09T08:37:16.463Z,100.00
2018-12-09T08:39:45.560Z,100.00
2018-12-09T08:42:14.558Z,100.00
2018-12-09T08:44:43.607Z,100.00
2018-12-09T08:47:12.707Z,100.00
2018-12-09T08:49:41.787Z,100.00
2018-12-09T08:52:10.849Z,100.00
2018-12-09T08:54:39.857Z,100.00
2018-12-09T08:57:08.889Z,100.00
2018-12-09T08:59:37.861Z,100.00
2018-12-09T09:02:07.010Z,100.00
2018-12-09T09:04:35.975Z,100.00
2018-12-09T09:07:05.019Z,100.00
2018-12-09T09:09:34.142Z,100.00
2018-12-09T09:12:03.199Z,100.00
2018-12-09T09:14:32.418Z,100.00
2018-12-09T09:17:01.744Z,100.00
2018-12-09T09:19:30.739Z,100.00
2018-12-09T09:21:59.737Z,100.00
2018-12-09T09:24:28.777Z,100.00
2018-12-09T09:26:57.788Z,100.00
2018-12-09T09:29:26.836Z,100.00
2018-12-09T09:31:55.989Z,100.00
2018-12-09T09:34:25.062Z,100.00
2018-12-09T09:36:54.148Z,100.00
2018-12-09T09:39:23.247Z,100.00
2018-12-09T09:41:52.307Z,100.00
2018-12-09T09:44:21.399Z,100.00
2018-12-09T09:46:50.479Z,100.00
2018-12-09T09:49:19.523Z,100.00
2018-12-09T09:51:48.629Z,100.00
2018-12-09T09:54:17.976Z,100.00
2018-12-09T09:56:46.973Z,100.00
2018-12-09T09:59:15.956Z,100.00
2018-12-09T10:01:45.049Z,100.00
2018-12-09T10:04:14.052Z,100.00
2018-12-09T10:06:43.129Z,100.00
2018-12-09T10:09:12.207Z,100.00
2018-12-09T10:11:41.276Z,100.00
2018-12-09T10:14:10.341Z,100.00
2018-12-09T10:16:39.491Z,100.00
2018-12-09T10:19:08.592Z,100.00
2018-12-09T10:21:37.595Z,100.00
2018-12-09T10:24:06.784Z,100.00
2018-12-09T10:26:36.623Z,100.00
2018-12-09T10:29:04.892Z,100.00
2018-12-09T10:31:34.259Z,100.00
2018-12-09T10:34:03.227Z,100.00
2018-12-09T10:36:32.202Z,100.00
2018-12-09T10:39:02.862Z,100.00
2018-12-09T10:41:31.880Z,96.99
2018-12-09T10:44:00.894Z,98.22
2018-12-09T10:46:29.929Z,94.40
2018-12-09T10:48:58.902Z,93.44
2018-12-09T10:51:27.922Z,90.47
2018-12-09T10:53:56.995Z,100.00
2018-12-09T10:56:26.049Z,98.81
2018-12-09T10:58:55.519Z,96.55
2018-12-09T11:01:27.493Z,81.19
2018-12-09T11:03:56.589Z,82.70
2018-12-09T11:06:25.635Z,84.69
2018-12-09T11:08:54.885Z,85.32
2018-12-09T11:11:23.838Z,84.65
2018-12-09T11:13:58.067Z,83.77
2018-12-09T11:16:21.919Z,83.17
2018-12-09T11:18:50.897Z,83.41
2018-12-09T11:21:19.894Z,83.97
2018-12-09T11:23:48.989Z,80.72
2018-12-09T11:26:17.995Z,83.27
2018-12-09T11:28:47.056Z,82.27
2018-12-09T11:31:24.684Z,82.88
2018-12-09T11:33:54.762Z,82.96
2018-12-09T11:36:23.820Z,83.98
2018-12-09T11:38:53.066Z,84.92
2018-12-09T11:41:22.206Z,83.98
2018-12-09T11:43:51.179Z,82.40
2018-12-09T11:46:20.552Z,82.33
2018-12-09T11:48:49.573Z,84.91
2018-12-09T11:51:18.560Z,87.31
2018-12-09T11:53:47.619Z,87.89
2018-12-09T11:56:16.627Z,86.77
2018-12-09T11:58:45.654Z,87.45
2018-12-09T12:01:14.743Z,89.66
2018-12-09T12:03:43.801Z,89.65
2018-12-09T12:06:12.903Z,89.67
2018-12-09T12:08:41.982Z,89.30
2018-12-09T12:11:10.994Z,89.91
2018-12-09T12:13:40.081Z,90.94
2018-12-09T12:16:09.183Z,90.73
2018-12-09T12:18:38.211Z,89.17
2018-12-09T12:21:07.199Z,88.29
2018-12-09T12:23:36.230Z,86.64
2018-12-09T12:26:05.463Z,87.17
2018-12-09T12:28:34.579Z,87.82
2018-12-09T12:31:03.676Z,87.75
2018-12-09T12:33:32.654Z,86.53
2018-12-09T12:36:01.668Z,85.29
2018-12-09T12:38:30.761Z,86.67
2018-12-09T12:40:59.734Z,88.28
2018-12-09T12:43:28.840Z,89.28
2018-12-09T12:45:58.056Z,98.53
2018-12-09T12:48:27.144Z,91.27
2018-12-09T12:50:56.225Z,93.03
2018-12-09T12:53:25.351Z,95.30
2018-12-09T12:55:54.350Z,93.59
2018-12-09T12:58:23.488Z,93.43
2018-12-09T13:00:52.629Z,90.78
2018-12-09T13:03:21.767Z,89.89
2018-12-09T13:05:50.965Z,86.40
2018-12-09T13:08:20.072Z,86.67
2018-12-09T13:10:49.065Z,87.20
2018-12-09T13:13:18.092Z,85.75
2018-12-09T13:15:47.116Z,87.11
2018-12-09T13:18:16.145Z,84.70
2018-12-09T13:20:45.225Z,85.24
2018-12-09T13:23:14.339Z,87.87
2018-12-09T13:25:43.458Z,88.08
2018-12-09T13:28:12.604Z,86.46
2018-12-09T13:30:41.934Z,81.38
2018-12-09T13:33:11.048Z,81.67
2018-12-09T13:35:40.039Z,82.62
2018-12-09T13:38:09.081Z,84.10
2018-12-09T13:40:38.143Z,81.38
2018-12-09T13:43:07.152Z,80.40
2018-12-09T13:45:36.195Z,78.71
2018-12-09T13:48:05.780Z,79.00
2018-12-09T13:50:34.854Z,78.37
2018-12-09T13:53:03.864Z,100.00
2018-12-09T13:55:32.910Z,100.00
2018-12-09T13:58:01.951Z,100.00
2018-12-09T14:00:31.495Z,100.00
2018-12-09T14:03:00.509Z,77.45
2018-12-09T14:05:29.544Z,76.02
2018-12-09T14:07:58.622Z,73.19
2018-12-09T14:10:27.704Z,81.75
2018-12-09T14:12:56.723Z,75.57
2018-12-09T14:15:25.802Z,71.87
2018-12-09T14:17:55.334Z,70.40
2018-12-09T14:20:24.374Z,72.89
2018-12-09T14:22:53.436Z,71.46
2018-12-09T14:25:22.432Z,72.02
2018-12-09T14:27:51.441Z,74.20
2018-12-09T14:30:20.942Z,73.72
2018-12-09T14:32:50.164Z,77.44
2018-12-09T14:35:19.265Z,77.92
2018-12-09T14:37:48.334Z,79.95
2018-12-09T14:40:18.098Z,81.85
2018-12-09T14:42:47.125Z,83.37
2018-12-09T14:45:16.184Z,88.49
2018-12-09T14:47:45.272Z,85.24
2018-12-09T14:50:14.333Z,94.52
2018-12-09T14:52:43.379Z,87.36
2018-12-09T14:55:12.439Z,83.98
2018-12-09T14:57:41.436Z,84.81
2018-12-09T15:00:11.519Z,87.62
2018-12-09T15:02:40.509Z,87.17
2018-12-09T15:05:09.582Z,90.82
2018-12-09T15:07:38.585Z,90.10
2018-12-09T15:10:08.983Z,93.16
2018-12-09T15:12:36.960Z,84.45
2018-12-09T15:15:06.299Z,85.58
2018-12-09T15:17:35.319Z,86.88
2018-12-09T15:20:04.611Z,85.66
2018-12-09T15:22:33.675Z,82.34
2018-12-09T15:25:02.709Z,83.92
2018-12-09T15:27:31.804Z,90.68
2018-12-09T15:30:00.854Z,87.59
2018-12-09T15:32:29.878Z,84.33
2018-12-09T15:34:58.984Z,86.27
2018-12-09T15:37:28.076Z,89.27
2018-12-09T15:39:57.068Z,87.49
2018-12-09T15:42:26.086Z,89.19
2018-12-09T15:44:55.118Z,88.34
2018-12-09T15:47:24.156Z,88.15
2018-12-09T15:49:53.180Z,91.20
2018-12-09T15:52:22.203Z,93.20
2018-12-09T15:54:51.207Z,90.92
2018-12-09T15:57:20.175Z,88.96
2018-12-09T15:59:49.204Z,97.69
2018-12-09T16:02:18.276Z,88.34
2018-12-09T16:04:47.323Z,90.34
2018-12-09T16:07:16.341Z,90.14
2018-12-09T16:09:45.371Z,91.70
2018-12-09T16:12:14.407Z,91.53
2018-12-09T16:14:43.620Z,88.80
2018-12-09T16:17:12.617Z,90.81
2018-12-09T16:19:42.303Z,87.95
2018-12-09T16:22:13.840Z,90.94
2018-12-09T16:24:43.003Z,88.96
2018-12-09T16:27:12.095Z,88.71
2018-12-09T16:29:41.147Z,90.21
2018-12-09T16:32:10.118Z,90.00
2018-12-09T16:34:39.152Z,89.17
2018-12-09T16:37:08.617Z,87.98
2018-12-09T16:39:37.584Z,83.65
2018-12-09T16:42:06.611Z,82.45
2018-12-09T16:44:35.643Z,83.40
2018-12-09T16:47:04.768Z,79.92
2018-12-09T16:49:33.734Z,78.61
2018-12-09T16:52:02.812Z,81.37
2018-12-09T16:54:32.002Z,83.58
2018-12-09T16:57:01.102Z,79.93
2018-12-09T16:59:30.746Z,83.13
2018-12-09T17:02:01.531Z,82.31
2018-12-09T17:04:31.543Z,83.88
2018-12-09T17:07:00.840Z,85.75
2018-12-09T17:09:31.147Z,84.93
2018-12-09T17:12:00.429Z,83.98
2018-12-09T17:14:32.123Z,82.89
2018-12-09T17:17:00.700Z,81.15
2018-12-09T17:19:30.007Z,81.26
2018-12-09T17:21:59.137Z,82.35
2018-12-09T17:24:28.640Z,83.38
2018-12-09T17:26:57.873Z,81.78
2018-12-09T17:29:28.438Z,79.77
2018-12-09T17:31:58.504Z,75.19
2018-12-09T17:34:28.310Z,75.35
2018-12-09T17:36:58.433Z,74.83
2018-12-09T17:39:28.432Z,76.64
2018-12-09T17:41:58.423Z,77.65
2018-12-09T17:44:28.167Z,79.89
2018-12-09T17:47:00.062Z,79.23
2018-12-09T17:49:30.172Z,80.37
2018-12-09T17:52:00.271Z,81.62
2018-12-09T17:54:30.287Z,83.44
2018-12-09T17:57:00.559Z,84.62
2018-12-09T17:59:32.749Z,83.37
2018-12-09T18:02:02.749Z,84.41
2018-12-09T18:04:33.736Z,82.39
2018-12-09T18:07:04.211Z,80.56
2018-12-09T18:09:33.813Z,78.81
2018-12-09T18:12:04.307Z,77.23
2018-12-09T18:14:34.466Z,74.75
2018-12-09T18:17:03.587Z,71.76
2018-12-09T18:19:34.842Z,69.03
2018-12-09T18:22:03.968Z,67.87
2018-12-09T18:24:34.086Z,68.23
2018-12-09T18:27:03.729Z,69.38
2018-12-09T18:29:33.112Z,70.19
2018-12-09T18:32:04.664Z,70.88
2018-12-09T18:34:41.091Z,75.53
2018-12-09T18:37:11.538Z,78.51
2018-12-09T18:39:40.898Z,77.84
2018-12-09T18:42:10.139Z,72.53
2018-12-09T18:44:40.675Z,70.47
2018-12-09T18:47:10.254Z,75.66
2018-12-09T18:49:40.254Z,74.66
2018-12-09T18:52:11.707Z,74.79
2018-12-09T18:54:44.264Z,76.44
2018-12-09T18:57:16.593Z,75.80
2018-12-09T18:59:47.201Z,72.99
2018-12-09T19:02:16.478Z,74.23
2018-12-09T19:04:45.571Z,76.26
2018-12-09T19:07:15.647Z,75.70
2018-12-09T19:09:45.307Z,72.65
2018-12-09T19:12:14.748Z,71.52
2018-12-09T19:14:44.691Z,73.88
2018-12-09T19:17:14.079Z,75.15
2018-12-09T19:19:43.291Z,71.99
2018-12-09T19:22:12.484Z,72.35
2018-12-09T19:24:41.747Z,74.44
2018-12-09T19:27:11.109Z,77.51
2018-12-09T19:29:40.484Z,78.16
2018-12-09T19:32:09.862Z,81.21
2018-12-09T19:34:38.915Z,82.62
2018-12-09T19:37:08.484Z,80.54
2018-12-09T19:39:37.837Z,86.83
2018-12-09T19:42:07.033Z,83.37
2018-12-09T19:44:36.582Z,86.71
2018-12-09T19:47:07.482Z,90.62
2018-12-09T19:49:36.533Z,90.84
2018-12-09T19:52:06.185Z,95.60
2018-12-09T19:54:35.607Z,98.23
2018-12-09T19:57:04.684Z,100.00
2018-12-09T19:59:33.712Z,100.00
2018-12-09T20:02:02.934Z,100.00
2018-12-09T20:04:31.947Z,100.00
2018-12-09T20:07:01.016Z,100.00
2018-12-09T20:09:30.139Z,100.00
2018-12-09T20:11:59.196Z,100.00
2018-12-09T20:14:31.710Z,100.00
2018-12-09T20:17:00.888Z,100.00
2018-12-09T20:19:30.086Z,100.00
2018-12-09T20:21:59.227Z,100.00
2018-12-09T20:24:28.520Z,100.00
2018-12-09T20:26:57.741Z,100.00
2018-12-09T20:29:26.956Z,100.00
2018-12-09T20:31:56.028Z,100.00
2018-12-09T20:34:25.071Z,100.00
2018-12-09T20:36:54.120Z,100.00
2018-12-09T20:39:23.158Z,100.00
2018-12-09T20:41:52.236Z,100.00
2018-12-09T20:44:21.478Z,100.00
2018-12-09T20:46:50.650Z,100.00
2018-12-09T20:49:19.719Z,100.00
2018-12-09T20:51:48.882Z,100.00
2018-12-09T20:54:17.933Z,100.00
2018-12-09T20:56:46.969Z,100.00
2018-12-09T20:59:16.079Z,100.00
2018-12-09T21:01:46.999Z,100.00
2018-12-09T21:04:16.210Z,100.00
2018-12-09T21:06:45.351Z,100.00
2018-12-09T21:09:14.471Z,100.00
2018-12-09T21:11:43.520Z,100.00
2018-12-09T21:14:12.660Z,100.00
2018-12-09T21:16:43.247Z,100.00
2018-12-09T21:19:12.505Z,100.00
2018-12-09T21:21:45.070Z,100.00
2018-12-09T21:24:25.765Z,100.00
2018-12-09T21:26:54.907Z,100.00
2018-12-09T21:29:28.134Z,100.00
2018-12-09T21:32:01.021Z,100.00
2018-12-09T21:34:36.045Z,100.00
2018-12-09T21:37:11.072Z,98.38
2018-12-09T21:39:40.708Z,97.29
2018-12-09T21:42:09.781Z,96.14
2018-12-09T21:44:39.027Z,98.91
2018-12-09T21:47:08.312Z,100.00
2018-12-09T21:49:37.344Z,96.60
2018-12-09T21:52:06.416Z,91.01
2018-12-09T21:54:35.485Z,89.96
2018-12-09T21:57:04.533Z,89.44
2018-12-09T21:59:33.556Z,90.68
2018-12-09T22:02:02.867Z,86.19
2018-12-09T22:04:32.029Z,82.14
2018-12-09T22:07:01.311Z,86.62
2018-12-09T22:09:30.317Z,88.53
2018-12-09T22:11:59.411Z,93.39
2018-12-09T22:14:29.382Z,97.72
2018-12-09T22:16:58.400Z,97.20
2018-12-09T22:19:27.439Z,97.15
2018-12-09T22:21:56.528Z,96.64
2018-12-09T22:24:25.500Z,97.66
2018-12-09T22:26:54.570Z,98.91
2018-12-09T22:29:23.590Z,98.30
2018-12-09T22:31:52.556Z,99.66
2018-12-09T22:34:21.764Z,100.00
2018-12-09T22:36:50.820Z,99.46
2018-12-09T22:39:19.815Z,98.62
2018-12-09T22:41:48.835Z,97.22
2018-12-09T22:44:17.909Z,97.33
2018-12-09T22:46:46.976Z,98.02
2018-12-09T22:49:15.986Z,95.96
2018-12-09T22:51:45.045Z,96.77
2018-12-09T22:54:14.049Z,95.44
2018-12-09T22:56:43.126Z,93.05
2018-12-09T22:59:12.324Z,92.23
2018-12-09T23:01:45.384Z,91.62
2018-12-09T23:04:14.488Z,88.17
2018-12-09T23:06:43.539Z,93.61
2018-12-09T23:09:12.516Z,84.55
2018-12-09T23:11:41.534Z,88.45
2018-12-09T23:14:10.588Z,92.88
2018-12-09T23:16:39.591Z,85.85
2018-12-09T23:19:08.884Z,78.67
2018-12-09T23:21:37.891Z,81.74
2018-12-09T23:24:06.940Z,79.79
2018-12-09T23:26:35.967Z,79.86
2018-12-09T23:29:04.975Z,80.25
2018-12-09T23:31:33.945Z,82.33
2018-12-09T23:34:03.023Z,86.43
2018-12-09T23:36:32.062Z,91.51
2018-12-09T23:39:01.134Z,93.88
2018-12-09T23:41:30.222Z,95.93
2018-12-09T23:43:59.218Z,96.47
2018-12-09T23:46:28.211Z,99.57
2018-12-09T23:48:57.267Z,99.25
2018-12-09T23:51:26.238Z,99.70
2018-12-09T23:53:55.319Z,100.00
2018-12-09T23:56:24.772Z,99.54
2018-12-09T23:58:53.767Z,99.32
